createdAt,value
2022-09-28T00:01:07.655Z,9.42
2022-09-28T00:04:09.744Z,9.37
2022-09-28T00:07:11.585Z,9.37
2022-09-28T00:10:13.442Z,9.38
2022-09-28T00:13:15.189Z,9.38
2022-09-28T00:16:43.562Z,9.38
2022-09-28T00:20:05.982Z,9.39
2022-09-28T00:23:07.766Z,9.40
2022-09-28T00:26:09.516Z,9.45
2022-09-28T00:29:32.045Z,9.48
2022-09-28T00:32:54.204Z,9.51
2022-09-28T00:36:19.037Z,9.51
2022-09-28T00:39:41.651Z,9.52
2022-09-28T00:42:45.201Z,9.52
2022-09-28T00:45:53.896Z,9.51
2022-09-28T00:49:07.551Z,9.51
2022-09-28T00:52:12.605Z,9.50
2022-09-28T00:55:22.039Z,9.49
2022-09-28T00:58:34.214Z,9.47
2022-09-28T01:01:37.115Z,9.43
2022-09-28T01:04:39.938Z,9.39
2022-09-28T01:07:44.065Z,9.33
2022-09-28T01:10:45.853Z,9.28
2022-09-28T01:13:48.888Z,9.22
2022-09-28T01:17:09.728Z,9.15
2022-09-28T01:20:32.745Z,9.08
2022-09-28T01:23:49.385Z,8.99
2022-09-28T01:27:14.019Z,8.93
2022-09-28T01:30:18.326Z,8.86
2022-09-28T01:33:26.567Z,8.79
2022-09-28T01:36:35.157Z,8.74
2022-09-28T01:39:40.678Z,8.70
2022-09-28T01:42:45.126Z,8.67
2022-09-28T01:45:50.160Z,8.65
2022-09-28T01:48:56.701Z,8.62
2022-09-28T01:52:13.697Z,8.59
2022-09-28T01:55:25.390Z,8.55
2022-09-28T01:58:46.885Z,8.54
2022-09-28T02:02:04.053Z,8.54
2022-09-28T02:05:13.434Z,8.52
2022-09-28T02:08:25.895Z,8.50
2022-09-28T02:11:27.699Z,8.50
2022-09-28T02:14:30.309Z,8.51
2022-09-28T02:17:32.092Z,8.51
2022-09-28T02:20:34.946Z,8.51
2022-09-28T02:23:39.770Z,8.52
2022-09-28T02:26:43.418Z,8.55
2022-09-28T02:29:45.158Z,8.59
2022-09-28T02:32:49.333Z,8.63
2022-09-28T02:35:51.340Z,8.68
2022-09-28T02:38:53.613Z,8.72
2022-09-28T02:42:05.553Z,8.74
2022-09-28T02:45:36.924Z,8.76
2022-09-28T02:49:20.409Z,8.76
2022-09-28T02:52:47.998Z,8.73
2022-09-28T02:56:05.494Z,8.68
2022-09-28T02:59:39.541Z,8.65
2022-09-28T03:02:58.966Z,8.60
2022-09-28T03:06:05.060Z,8.56
2022-09-28T03:09:36.121Z,8.52
2022-09-28T03:12:38.644Z,8.49
2022-09-28T03:15:46.453Z,8.47
2022-09-28T03:18:50.172Z,8.45
2022-09-28T03:21:52.149Z,8.44
2022-09-28T03:24:54.063Z,8.44
2022-09-28T03:27:55.738Z,8.43
2022-09-28T03:30:57.413Z,8.42
2022-09-28T03:33:59.140Z,8.38
2022-09-28T03:37:00.836Z,8.35
2022-09-28T03:40:02.813Z,8.29
2022-09-28T03:43:04.497Z,8.22
2022-09-28T03:46:06.394Z,8.09
2022-09-28T03:49:10.221Z,7.98
2022-09-28T03:52:13.267Z,7.88
2022-09-28T03:55:15.057Z,7.76
2022-09-28T03:58:17.693Z,7.61
2022-09-28T04:01:19.533Z,7.46
2022-09-28T04:04:21.248Z,7.35
2022-09-28T04:07:24.586Z,7.28
2022-09-28T04:10:28.678Z,7.19
2022-09-28T04:13:30.926Z,7.15
2022-09-28T04:16:32.645Z,7.09
2022-09-28T04:19:34.378Z,6.98
2022-09-28T04:22:37.760Z,6.93
2022-09-28T04:25:39.884Z,6.89
2022-09-28T04:29:05.467Z,6.91
2022-09-28T04:32:08.211Z,6.86
2022-09-28T04:35:11.974Z,6.73
2022-09-28T04:38:14.009Z,6.54
2022-09-28T04:41:15.812Z,6.37
2022-09-28T04:44:17.771Z,6.31
2022-09-28T04:47:19.490Z,6.32
2022-09-28T04:50:21.230Z,6.33
2022-09-28T04:53:23.281Z,6.36
2022-09-28T04:56:25.053Z,6.35
2022-09-28T04:59:26.722Z,6.33
2022-09-28T05:02:29.658Z,6.37
2022-09-28T05:05:31.416Z,6.50
2022-09-28T05:08:35.404Z,6.60
2022-09-28T05:11:37.075Z,6.50
2022-09-28T05:14:38.770Z,6.44
2022-09-28T05:17:40.542Z,6.39
2022-09-28T05:20:42.560Z,6.71
2022-09-28T05:23:47.984Z,7.27
2022-09-28T05:26:49.733Z,7.80
2022-09-28T05:29:51.487Z,8.23
2022-09-28T05:32:53.803Z,8.57
2022-09-28T05:36:00.758Z,8.85
2022-09-28T05:39:04.257Z,9.19
2022-09-28T05:42:07.566Z,9.53
2022-09-28T05:45:10.411Z,9.93
2022-09-28T05:48:12.306Z,10.34
2022-09-28T05:51:13.941Z,10.59
2022-09-28T05:54:15.697Z,10.79
2022-09-28T05:57:17.398Z,10.96
2022-09-28T06:00:19.350Z,11.14
2022-09-28T06:03:21.432Z,11.31
2022-09-28T06:06:23.219Z,11.37
2022-09-28T06:09:26.114Z,11.45
2022-09-28T06:12:28.451Z,11.57
2022-09-28T06:15:32.362Z,11.78
2022-09-28T06:18:34.537Z,11.98
2022-09-28T06:21:36.431Z,12.04
2022-09-28T06:24:38.096Z,12.11
2022-09-28T06:27:42.634Z,12.33
2022-09-28T06:30:45.175Z,12.28
2022-09-28T06:33:48.562Z,12.48
2022-09-28T06:36:50.272Z,12.84
2022-09-28T06:39:53.435Z,13.08
2022-09-28T06:43:00.601Z,13.44
2022-09-28T06:46:03.307Z,13.73
2022-09-28T06:49:09.371Z,13.58
2022-09-28T06:52:12.053Z,13.43
2022-09-28T06:55:13.886Z,13.86
2022-09-28T06:58:20.759Z,14.21
2022-09-28T07:01:22.565Z,14.58
2022-09-28T07:04:24.272Z,14.97
2022-09-28T07:07:26.948Z,15.03
2022-09-28T07:10:29.591Z,14.87
2022-09-28T07:13:50.944Z,14.98
2022-09-28T07:17:11.503Z,14.98
2022-09-28T07:20:19.121Z,15.04
2022-09-28T07:23:21.449Z,14.90
2022-09-28T07:26:24.713Z,14.47
2022-09-28T07:29:26.851Z,14.32
2022-09-28T07:32:28.681Z,14.15
2022-09-28T07:35:30.598Z,13.93
2022-09-28T07:38:35.461Z,13.69
2022-09-28T07:41:39.668Z,13.69
2022-09-28T07:44:41.270Z,14.01
2022-09-28T07:47:43.311Z,14.35
2022-09-28T07:50:52.502Z,14.53
2022-09-28T07:53:56.847Z,14.57
2022-09-28T07:56:58.641Z,14.67
2022-09-28T08:00:02.268Z,15.07
2022-09-28T08:03:04.287Z,15.37
2022-09-28T08:06:07.675Z,15.56
2022-09-28T08:09:09.484Z,15.87
2022-09-28T08:12:13.358Z,15.94
2022-09-28T08:15:15.712Z,16.14
2022-09-28T08:18:17.771Z,15.92
2022-09-28T08:21:38.596Z,15.94
2022-09-28T08:24:40.399Z,16.26
2022-09-28T08:27:42.100Z,16.36
2022-09-28T08:30:47.701Z,16.29
2022-09-28T08:33:54.363Z,16.04
2022-09-28T08:36:59.265Z,16.02
2022-09-28T08:40:01.103Z,16.09
2022-09-28T08:43:07.196Z,16.31
2022-09-28T08:46:10.194Z,16.85
2022-09-28T08:49:42.398Z,17.22
2022-09-28T08:52:47.120Z,17.21
2022-09-28T08:55:49.848Z,17.38
2022-09-28T08:58:56.640Z,17.51
2022-09-28T09:02:04.117Z,17.33
2022-09-28T09:05:14.903Z,16.83
2022-09-28T09:08:30.148Z,15.97
2022-09-28T09:11:48.854Z,16.44
2022-09-28T09:15:05.072Z,16.73
2022-09-28T09:18:25.440Z,16.85
2022-09-28T09:21:41.795Z,16.78
2022-09-28T09:24:51.571Z,16.72
2022-09-28T09:28:12.154Z,16.96
2022-09-28T09:31:35.489Z,17.13
2022-09-28T09:35:15.046Z,16.83
2022-09-28T09:38:35.634Z,16.91
2022-09-28T09:41:55.949Z,16.76
2022-09-28T09:45:12.284Z,16.87
2022-09-28T09:48:39.217Z,17.24
2022-09-28T09:51:56.267Z,17.50
2022-09-28T09:55:05.622Z,17.50
2022-09-28T09:58:18.181Z,17.74
2022-09-28T10:01:23.516Z,18.08
2022-09-28T10:04:28.126Z,18.29
2022-09-28T10:07:41.405Z,18.66
2022-09-28T10:10:54.609Z,19.17
2022-09-28T10:13:56.970Z,19.33
2022-09-28T10:16:58.894Z,19.04
2022-09-28T10:20:00.841Z,18.00
2022-09-28T10:23:05.092Z,17.20
2022-09-28T10:26:16.608Z,17.00
2022-09-28T10:29:23.218Z,18.05
2022-09-28T10:32:27.730Z,18.86
2022-09-28T10:35:31.793Z,19.26
2022-09-28T10:38:34.050Z,19.61
2022-09-28T10:41:49.277Z,20.14
2022-09-28T10:45:13.880Z,20.92
2022-09-28T10:48:22.612Z,21.20
2022-09-28T10:52:00.129Z,21.59
2022-09-28T10:55:03.565Z,21.60
2022-09-28T10:58:26.122Z,21.09
2022-09-28T11:01:33.086Z,20.86
2022-09-28T11:04:40.520Z,19.94
2022-09-28T11:07:47.538Z,18.86
2022-09-28T11:11:02.678Z,18.53
2022-09-28T11:14:04.722Z,18.16
2022-09-28T11:17:26.473Z,17.58
2022-09-28T11:20:33.442Z,17.12
2022-09-28T11:23:35.273Z,16.97
2022-09-28T11:26:42.405Z,17.62
2022-09-28T11:29:47.039Z,18.50
2022-09-28T11:32:48.983Z,19.17
2022-09-28T11:36:00.264Z,19.46
2022-09-28T11:39:08.582Z,19.43
2022-09-28T11:42:19.641Z,19.37
2022-09-28T11:45:27.464Z,19.46
2022-09-28T11:48:40.645Z,19.47
2022-09-28T11:51:43.543Z,19.70
2022-09-28T11:54:52.705Z,19.64
2022-09-28T11:58:04.966Z,19.19
2022-09-28T12:01:21.180Z,18.88
2022-09-28T12:04:39.362Z,18.81
2022-09-28T12:07:54.443Z,18.75
2022-09-28T12:11:09.790Z,18.69
2022-09-28T12:14:20.718Z,18.75
2022-09-28T12:17:35.728Z,18.78
2022-09-28T12:20:43.063Z,18.61
2022-09-28T12:23:45.004Z,18.63
2022-09-28T12:27:28.366Z,18.59
2022-09-28T12:30:33.628Z,18.56
2022-09-28T12:33:36.790Z,18.48
2022-09-28T12:36:49.098Z,18.25
2022-09-28T12:40:23.629Z,18.07
2022-09-28T12:43:33.486Z,17.99
2022-09-28T12:46:54.040Z,18.05
2022-09-28T12:53:41.676Z,18.42
2022-09-28T12:57:02.169Z,18.52
2022-09-28T13:00:23.329Z,18.78
2022-09-28T13:03:50.070Z,19.10
2022-09-28T13:07:03.427Z,19.28
2022-09-28T13:10:33.224Z,19.32
2022-09-28T13:13:49.554Z,19.33
2022-09-28T13:17:04.350Z,19.22
2022-09-28T13:20:17.769Z,19.03
2022-09-28T13:23:39.578Z,18.85
2022-09-28T13:26:44.908Z,18.78
2022-09-28T13:29:49.245Z,18.69
2022-09-28T13:32:51.621Z,18.73
2022-09-28T13:35:53.339Z,18.81
2022-09-28T13:38:56.950Z,18.86
2022-09-28T13:42:00.173Z,18.81
2022-09-28T13:45:11.310Z,18.82
2022-09-28T13:48:16.430Z,18.77
2022-09-28T13:51:33.234Z,18.79
2022-09-28T13:54:58.073Z,18.71
2022-09-28T13:58:06.595Z,18.74
2022-09-28T14:01:23.358Z,18.60
2022-09-28T14:04:56.498Z,18.37
2022-09-28T14:08:11.496Z,18.19
2022-09-28T14:11:40.649Z,17.87
2022-09-28T14:14:52.027Z,17.64
2022-09-28T14:17:54.737Z,17.40
2022-09-28T14:21:21.770Z,17.22
2022-09-28T14:24:30.247Z,17.05
2022-09-28T14:28:01.645Z,16.94
2022-09-28T14:31:24.920Z,16.79
2022-09-28T14:34:41.882Z,16.65
2022-09-28T14:38:17.922Z,16.50
2022-09-28T14:41:31.410Z,16.33
2022-09-28T14:45:06.094Z,16.16
2022-09-28T14:48:15.742Z,16.06
2022-09-28T14:51:26.803Z,15.96
2022-09-28T14:54:37.957Z,15.89
2022-09-28T14:57:41.689Z,15.84
2022-09-28T15:00:44.367Z,15.76
2022-09-28T15:03:52.390Z,15.70
2022-09-28T15:06:54.629Z,15.64
2022-09-28T15:09:57.858Z,15.58
2022-09-28T15:13:01.939Z,15.53
2022-09-28T15:16:07.344Z,15.46
2022-09-28T15:19:33.286Z,15.35
2022-09-28T15:22:36.299Z,15.22
2022-09-28T15:25:38.010Z,15.12
2022-09-28T15:28:44.963Z,15.01
2022-09-28T15:31:48.991Z,14.95
2022-09-28T15:34:54.755Z,14.90
2022-09-28T15:37:56.558Z,14.85
2022-09-28T15:40:58.722Z,14.78
2022-09-28T15:44:12.382Z,14.75
2022-09-28T15:47:16.384Z,14.76
2022-09-28T15:50:28.025Z,14.72
2022-09-28T15:53:31.361Z,14.69
2022-09-28T15:56:50.976Z,14.68
2022-09-28T15:59:57.063Z,14.72
2022-09-28T16:03:08.946Z,14.73
2022-09-28T16:06:11.001Z,14.72
2022-09-28T16:09:31.681Z,14.69
2022-09-28T16:12:36.236Z,14.61
2022-09-28T16:15:38.248Z,14.52
2022-09-28T16:18:40.625Z,14.45
2022-09-28T16:21:45.237Z,14.41
2022-09-28T16:24:55.839Z,14.37
2022-09-28T16:27:57.554Z,14.29
2022-09-28T16:31:07.642Z,14.25
2022-09-28T16:34:19.923Z,14.24
2022-09-28T16:37:31.779Z,14.24
2022-09-28T16:40:33.900Z,14.21
2022-09-28T16:43:36.642Z,14.20
2022-09-28T16:46:39.178Z,14.19
2022-09-28T16:49:41.129Z,14.19
2022-09-28T16:53:02.334Z,14.20
2022-09-28T16:56:04.932Z,14.17
2022-09-28T16:59:19.113Z,14.12
2022-09-28T17:05:48.561Z,14.05
2022-09-28T17:08:50.183Z,13.98
2022-09-28T17:11:57.045Z,13.91
2022-09-28T17:15:00.371Z,13.79
2022-09-28T17:18:02.773Z,13.67
2022-09-28T17:21:06.900Z,13.59
2022-09-28T17:24:08.571Z,13.54
2022-09-28T17:27:15.685Z,13.46
2022-09-28T17:30:20.234Z,13.12
2022-09-28T17:33:24.101Z,12.72
2022-09-28T17:36:27.011Z,12.45
2022-09-28T17:39:28.765Z,12.31
2022-09-28T17:42:30.384Z,12.26
2022-09-28T17:45:33.319Z,12.18
2022-09-28T17:48:35.372Z,12.17
2022-09-28T17:51:37.872Z,12.12
2022-09-28T17:54:39.636Z,12.08
2022-09-28T17:57:41.418Z,12.09
2022-09-28T18:00:44.342Z,12.12
2022-09-28T18:03:46.582Z,12.13
2022-09-28T18:06:48.167Z,12.13
2022-09-28T18:09:56.743Z,12.28
2022-09-28T18:12:58.417Z,12.39
2022-09-28T18:16:00.184Z,12.54
2022-09-28T18:19:02.190Z,12.81
2022-09-28T18:22:03.838Z,12.87
2022-09-28T18:25:07.014Z,12.77
2022-09-28T18:28:09.237Z,12.74
2022-09-28T18:31:14.478Z,12.74
2022-09-28T18:34:16.804Z,12.78
2022-09-28T18:37:18.648Z,12.87
2022-09-28T18:40:20.585Z,12.93
2022-09-28T18:43:25.112Z,12.92
2022-09-28T18:46:28.193Z,12.93
2022-09-28T18:49:30.914Z,12.90
2022-09-28T18:52:36.319Z,12.88
2022-09-28T18:55:42.305Z,12.86
2022-09-28T18:58:45.355Z,12.73
2022-09-28T19:01:47.181Z,12.67
2022-09-28T19:04:49.014Z,12.68
2022-09-28T19:07:51.045Z,12.72
2022-09-28T19:10:52.685Z,12.67
2022-09-28T19:13:55.539Z,12.60
2022-09-28T19:16:57.367Z,12.63
2022-09-28T19:19:59.052Z,12.64
2022-09-28T19:23:00.896Z,12.57
2022-09-28T19:26:04.666Z,12.54
2022-09-28T19:29:06.541Z,12.59
2022-09-28T19:32:08.233Z,12.55
2022-09-28T19:35:09.978Z,12.51
2022-09-28T19:38:11.859Z,12.52
2022-09-28T19:41:39.347Z,12.47
2022-09-28T19:44:46.510Z,12.46
2022-09-28T19:47:49.077Z,12.47
2022-09-28T19:51:07.340Z,12.42
2022-09-28T19:54:10.946Z,12.42
2022-09-28T19:57:14.618Z,12.48
2022-09-28T20:00:16.961Z,12.43
2022-09-28T20:03:18.712Z,12.45
2022-09-28T20:06:20.369Z,12.55
2022-09-28T20:09:22.026Z,12.55
2022-09-28T20:12:23.841Z,12.56
2022-09-28T20:15:25.611Z,12.52
2022-09-28T20:18:27.626Z,12.42
2022-09-28T20:21:29.866Z,12.34
2022-09-28T20:24:32.204Z,12.31
2022-09-28T20:27:33.857Z,12.39
2022-09-28T20:30:37.392Z,12.45
2022-09-28T20:33:39.739Z,12.50
2022-09-28T20:36:43.176Z,12.54
2022-09-28T20:39:45.316Z,12.58
2022-09-28T20:42:46.969Z,12.60
2022-09-28T20:45:50.642Z,12.61
2022-09-28T20:48:55.108Z,12.62
2022-09-28T20:51:56.836Z,12.66
2022-09-28T20:54:58.612Z,12.73
2022-09-28T20:58:04.290Z,12.76
2022-09-28T21:01:18.018Z,12.77
2022-09-28T21:04:19.942Z,12.68
2022-09-28T21:07:21.681Z,12.51
2022-09-28T21:10:23.530Z,12.36
2022-09-28T21:13:25.911Z,12.26
2022-09-28T21:16:29.644Z,12.18
2022-09-28T21:19:31.988Z,12.15
2022-09-28T21:22:33.700Z,12.18
2022-09-28T21:25:35.464Z,12.22
2022-09-28T21:28:38.230Z,12.25
2022-09-28T21:31:47.880Z,12.29
2022-09-28T21:34:50.514Z,12.32
2022-09-28T21:37:52.229Z,12.31
2022-09-28T21:40:55.894Z,12.31
2022-09-28T21:43:57.788Z,12.31
2022-09-28T21:46:59.409Z,12.31
2022-09-28T21:50:01.388Z,12.32
2022-09-28T21:53:03.241Z,12.33
2022-09-28T21:56:07.643Z,12.34
2022-09-28T21:59:09.321Z,12.35
2022-09-28T22:02:11.033Z,12.36
2022-09-28T22:05:13.150Z,12.32
2022-09-28T22:08:14.880Z,12.27
2022-09-28T22:11:22.329Z,12.20
2022-09-28T22:14:24.098Z,12.10
2022-09-28T22:17:25.759Z,12.03
2022-09-28T22:20:27.757Z,11.95
2022-09-28T22:23:30.495Z,11.87
2022-09-28T22:26:34.370Z,11.83
2022-09-28T22:29:36.100Z,11.80
2022-09-28T22:32:37.956Z,11.77
2022-09-28T22:35:39.662Z,11.75
2022-09-28T22:38:41.527Z,11.73
2022-09-28T22:41:43.905Z,11.70
2022-09-28T22:44:45.564Z,11.66
2022-09-28T22:47:47.304Z,11.61
2022-09-28T22:50:49.940Z,11.56
2022-09-28T22:53:51.702Z,11.54
2022-09-28T22:56:53.447Z,11.50
2022-09-28T22:59:55.082Z,11.43
2022-09-28T23:02:57.225Z,11.44
2022-09-28T23:06:21.274Z,11.54
2022-09-28T23:09:22.995Z,11.56
2022-09-28T23:12:24.706Z,11.55
2022-09-28T23:15:27.864Z,11.55
2022-09-28T23:18:32.238Z,11.54
2022-09-28T23:21:34.545Z,11.53
2022-09-28T23:24:36.236Z,11.53
2022-09-28T23:27:37.989Z,11.49
2022-09-28T23:30:39.981Z,11.46
2022-09-28T23:33:41.895Z,11.40
2022-09-28T23:36:43.524Z,11.37
2022-09-28T23:39:46.342Z,11.32
2022-09-28T23:42:48.107Z,11.30
2022-09-28T23:45:49.718Z,11.25
2022-09-28T23:48:51.581Z,11.20
2022-09-28T23:51:53.569Z,11.14
2022-09-28T23:54:55.305Z,11.11
2022-09-28T23:57:58.235Z,11.09
